sensor_id;sensor_type;location;lat;lon;timestamp;P1;durP1;ratioP1;P2;durP2;ratioP2
75044;SDS011;63614;56.026;35.960;2023-02-28T00:00:16;9.43;;;5.03;;
75044;SDS011;63614;56.026;35.960;2023-02-28T00:02:43;9.02;;;5.00;;
75044;SDS011;63614;56.026;35.960;2023-02-28T00:05:10;9.65;;;5.20;;
75044;SDS011;63614;56.026;35.960;2023-02-28T00:07:37;12.05;;;5.20;;
75044;SDS011;63614;56.026;35.960;2023-02-28T00:10:04;10.65;;;5.18;;
75044;SDS011;63614;56.026;35.960;2023-02-28T00:12:33;8.95;;;5.03;;
75044;SDS011;63614;56.026;35.960;2023-02-28T00:15:00;9.98;;;5.20;;
75044;SDS011;63614;56.026;35.960;2023-02-28T00:17:25;8.57;;;4.53;;
75044;SDS011;63614;56.026;35.960;2023-02-28T00:19:51;7.78;;;4.75;;
75044;SDS011;63614;56.026;35.960;2023-02-28T00:22:18;9.82;;;5.30;;
75044;SDS011;63614;56.026;35.960;2023-02-28T00:24:45;8.60;;;4.80;;
75044;SDS011;63614;56.026;35.960;2023-02-28T00:27:12;9.32;;;4.88;;
75044;SDS011;63614;56.026;35.960;2023-02-28T00:29:39;8.90;;;5.15;;
75044;SDS011;63614;56.026;35.960;2023-02-28T00:32:05;7.70;;;4.40;;
75044;SDS011;63614;56.026;35.960;2023-02-28T00:34:32;10.80;;;4.75;;
75044;SDS011;63614;56.026;35.960;2023-02-28T00:37:06;10.82;;;5.32;;
75044;SDS011;63614;56.026;35.960;2023-02-28T00:39:35;10.02;;;5.13;;
75044;SDS011;63614;56.026;35.960;2023-02-28T00:42:02;9.93;;;5.40;;
75044;SDS011;63614;56.026;35.960;2023-02-28T00:44:29;8.43;;;5.17;;
75044;SDS011;63614;56.026;35.960;2023-02-28T00:46:56;12.63;;;4.78;;
75044;SDS011;63614;56.026;35.960;2023-02-28T00:51:50;8.63;;;4.82;;
75044;SDS011;63614;56.026;35.960;2023-02-28T00:54:18;8.68;;;4.63;;
75044;SDS011;63614;56.026;35.960;2023-02-28T00:56:46;9.52;;;4.00;;
75044;SDS011;63614;56.026;35.960;2023-02-28T00:59:13;7.85;;;4.93;;
75044;SDS011;63614;56.026;35.960;2023-02-28T01:01:40;8.75;;;4.50;;
75044;SDS011;63614;56.026;35.960;2023-02-28T01:04:06;6.30;;;3.88;;
75044;SDS011;63614;56.026;35.960;2023-02-28T01:06:34;7.72;;;4.22;;
75044;SDS011;63614;56.026;35.960;2023-02-28T01:09:01;7.65;;;4.68;;
75044;SDS011;63614;56.026;35.960;2023-02-28T01:11:28;5.90;;;3.70;;
75044;SDS011;63614;56.026;35.960;2023-02-28T01:13:54;8.55;;;4.75;;
75044;SDS011;63614;56.026;35.960;2023-02-28T01:16:20;7.80;;;4.50;;
75044;SDS011;63614;56.026;35.960;2023-02-28T01:18:45;7.97;;;4.45;;
75044;SDS011;63614;56.026;35.960;2023-02-28T01:21:12;7.45;;;4.50;;
75044;SDS011;63614;56.026;35.960;2023-02-28T01:23:40;7.88;;;4.40;;
75044;SDS011;63614;56.026;35.960;2023-02-28T01:26:24;7.38;;;4.63;;
75044;SDS011;63614;56.026;35.960;2023-02-28T01:28:50;8.85;;;4.47;;
75044;SDS011;63614;56.026;35.960;2023-02-28T01:31:17;9.23;;;4.28;;
75044;SDS011;63614;56.026;35.960;2023-02-28T01:33:44;7.93;;;4.73;;
75044;SDS011;63614;56.026;35.960;2023-02-28T01:36:15;7.95;;;4.40;;
75044;SDS011;63614;56.026;35.960;2023-02-28T01:38:46;7.22;;;4.32;;
75044;SDS011;63614;56.026;35.960;2023-02-28T01:41:19;8.52;;;4.32;;
75044;SDS011;63614;56.026;35.960;2023-02-28T01:43:52;8.65;;;4.50;;
75044;SDS011;63614;56.026;35.960;2023-02-28T01:46:23;6.60;;;4.13;;
75044;SDS011;63614;56.026;35.960;2023-02-28T01:49:03;6.60;;;3.97;;
75044;SDS011;63614;56.026;35.960;2023-02-28T01:51:46;7.85;;;4.13;;
75044;SDS011;63614;56.026;35.960;2023-02-28T01:54:20;7.35;;;4.32;;
75044;SDS011;63614;56.026;35.960;2023-02-28T01:56:51;6.85;;;4.22;;
75044;SDS011;63614;56.026;35.960;2023-02-28T01:59:22;7.93;;;4.40;;
75044;SDS011;63614;56.026;35.960;2023-02-28T02:01:52;7.68;;;3.60;;
75044;SDS011;63614;56.026;35.960;2023-02-28T02:04:19;8.43;;;4.30;;
75044;SDS011;63614;56.026;35.960;2023-02-28T02:06:47;6.82;;;4.20;;
75044;SDS011;63614;56.026;35.960;2023-02-28T02:09:13;7.57;;;4.22;;
75044;SDS011;63614;56.026;35.960;2023-02-28T02:11:40;5.82;;;3.70;;
75044;SDS011;63614;56.026;35.960;2023-02-28T02:33:58;7.75;;;4.18;;
75044;SDS011;63614;56.026;35.960;2023-02-28T02:36:34;10.07;;;5.20;;
75044;SDS011;63614;56.026;35.960;2023-02-28T02:39:09;7.20;;;4.07;;
75044;SDS011;63614;56.026;35.960;2023-02-28T02:45:03;7.80;;;3.42;;
75044;SDS011;63614;56.026;35.960;2023-02-28T02:47:12;6.13;;;3.70;;
75044;SDS011;63614;56.026;35.960;2023-02-28T02:49:47;7.35;;;3.80;;
75044;SDS011;63614;56.026;35.960;2023-02-28T02:52:18;7.10;;;4.15;;
75044;SDS011;63614;56.026;35.960;2023-02-28T02:54:48;6.65;;;3.90;;
75044;SDS011;63614;56.026;35.960;2023-02-28T03:00:16;7.47;;;4.15;;
75044;SDS011;63614;56.026;35.960;2023-02-28T03:02:46;6.32;;;3.58;;
75044;SDS011;63614;56.026;35.960;2023-02-28T03:05:20;5.65;;;3.72;;
75044;SDS011;63614;56.026;35.960;2023-02-28T03:07:50;5.57;;;4.00;;
75044;SDS011;63614;56.026;35.960;2023-02-28T03:10:37;6.60;;;3.65;;
75044;SDS011;63614;56.026;35.960;2023-02-28T03:19:05;6.85;;;4.07;;
75044;SDS011;63614;56.026;35.960;2023-02-28T03:24:38;7.57;;;4.25;;
75044;SDS011;63614;56.026;35.960;2023-02-28T03:29:58;5.93;;;3.65;;
75044;SDS011;63614;56.026;35.960;2023-02-28T03:32:35;6.35;;;3.80;;
75044;SDS011;63614;56.026;35.960;2023-02-28T03:35:10;7.18;;;4.13;;
75044;SDS011;63614;56.026;35.960;2023-02-28T03:37:48;6.55;;;4.03;;
75044;SDS011;63614;56.026;35.960;2023-02-28T03:40:19;8.88;;;4.35;;
75044;SDS011;63614;56.026;35.960;2023-02-28T03:42:48;8.10;;;4.30;;
75044;SDS011;63614;56.026;35.960;2023-02-28T03:45:20;7.93;;;4.70;;
75044;SDS011;63614;56.026;35.960;2023-02-28T03:47:54;7.63;;;4.53;;
75044;SDS011;63614;56.026;35.960;2023-02-28T03:50:24;9.10;;;4.40;;
75044;SDS011;63614;56.026;35.960;2023-02-28T03:53:04;7.05;;;4.05;;
75044;SDS011;63614;56.026;35.960;2023-02-28T03:55:48;7.57;;;3.85;;
75044;SDS011;63614;56.026;35.960;2023-02-28T04:00:52;6.60;;;3.80;;
75044;SDS011;63614;56.026;35.960;2023-02-28T04:03:23;5.45;;;3.22;;
75044;SDS011;63614;56.026;35.960;2023-02-28T04:05:51;6.63;;;3.85;;
75044;SDS011;63614;56.026;35.960;2023-02-28T04:08:19;6.68;;;3.92;;
75044;SDS011;63614;56.026;35.960;2023-02-28T04:10:48;5.70;;;3.83;;
75044;SDS011;63614;56.026;35.960;2023-02-28T04:13:35;7.72;;;4.43;;
75044;SDS011;63614;56.026;35.960;2023-02-28T04:16:01;5.45;;;3.28;;
75044;SDS011;63614;56.026;35.960;2023-02-28T04:18:27;10.85;;;5.57;;
75044;SDS011;63614;56.026;35.960;2023-02-28T04:20:52;7.82;;;3.97;;
75044;SDS011;63614;56.026;35.960;2023-02-28T04:23:18;6.85;;;4.07;;
75044;SDS011;63614;56.026;35.960;2023-02-28T04:25:44;8.40;;;4.22;;
75044;SDS011;63614;56.026;35.960;2023-02-28T04:28:10;7.28;;;4.30;;
75044;SDS011;63614;56.026;35.960;2023-02-28T04:30:37;7.55;;;3.92;;
75044;SDS011;63614;56.026;35.960;2023-02-28T04:33:03;6.63;;;3.97;;
75044;SDS011;63614;56.026;35.960;2023-02-28T04:35:29;8.15;;;4.47;;
75044;SDS011;63614;56.026;35.960;2023-02-28T04:37:54;11.40;;;4.50;;
75044;SDS011;63614;56.026;35.960;2023-02-28T04:40:20;7.47;;;4.55;;
75044;SDS011;63614;56.026;35.960;2023-02-28T04:42:46;8.70;;;4.60;;
75044;SDS011;63614;56.026;35.960;2023-02-28T04:45:12;7.75;;;4.50;;
75044;SDS011;63614;56.026;35.960;2023-02-28T04:47:38;7.28;;;4.28;;
75044;SDS011;63614;56.026;35.960;2023-02-28T04:50:03;8.70;;;4.55;;
75044;SDS011;63614;56.026;35.960;2023-02-28T04:52:30;6.45;;;4.22;;
75044;SDS011;63614;56.026;35.960;2023-02-28T04:54:55;11.63;;;4.72;;
75044;SDS011;63614;56.026;35.960;2023-02-28T04:57:21;8.38;;;4.63;;
75044;SDS011;63614;56.026;35.960;2023-02-28T04:59:47;6.22;;;4.03;;
75044;SDS011;63614;56.026;35.960;2023-02-28T05:02:13;7.55;;;4.47;;
75044;SDS011;63614;56.026;35.960;2023-02-28T05:04:38;10.23;;;4.47;;
75044;SDS011;63614;56.026;35.960;2023-02-28T05:07:04;9.43;;;4.72;;
75044;SDS011;63614;56.026;35.960;2023-02-28T05:09:30;8.65;;;4.85;;
75044;SDS011;63614;56.026;35.960;2023-02-28T05:14:23;8.00;;;4.57;;
75044;SDS011;63614;56.026;35.960;2023-02-28T05:16:49;10.18;;;4.85;;
75044;SDS011;63614;56.026;35.960;2023-02-28T05:19:15;8.30;;;4.43;;
75044;SDS011;63614;56.026;35.960;2023-02-28T05:21:41;7.85;;;3.88;;
75044;SDS011;63614;56.026;35.960;2023-02-28T05:24:23;8.70;;;4.18;;
75044;SDS011;63614;56.026;35.960;2023-02-28T05:26:50;5.82;;;3.78;;
75044;SDS011;63614;56.026;35.960;2023-02-28T05:29:18;6.20;;;3.35;;
75044;SDS011;63614;56.026;35.960;2023-02-28T05:31:44;9.48;;;4.32;;
75044;SDS011;63614;56.026;35.960;2023-02-28T05:34:10;7.22;;;3.92;;
75044;SDS011;63614;56.026;35.960;2023-02-28T05:36:38;8.15;;;4.68;;
75044;SDS011;63614;56.026;35.960;2023-02-28T05:39:07;6.75;;;4.15;;
75044;SDS011;63614;56.026;35.960;2023-02-28T05:41:38;6.57;;;3.38;;
75044;SDS011;63614;56.026;35.960;2023-02-28T05:44:05;7.03;;;3.58;;
75044;SDS011;63614;56.026;35.960;2023-02-28T05:46:31;7.32;;;3.65;;
75044;SDS011;63614;56.026;35.960;2023-02-28T05:48:57;4.90;;;3.13;;
75044;SDS011;63614;56.026;35.960;2023-02-28T05:51:25;7.30;;;4.32;;
75044;SDS011;63614;56.026;35.960;2023-02-28T05:53:51;8.20;;;4.60;;
75044;SDS011;63614;56.026;35.960;2023-02-28T05:56:17;7.22;;;3.90;;
75044;SDS011;63614;56.026;35.960;2023-02-28T05:58:42;6.05;;;3.88;;
75044;SDS011;63614;56.026;35.960;2023-02-28T06:01:30;7.18;;;3.85;;
75044;SDS011;63614;56.026;35.960;2023-02-28T06:03:56;6.53;;;3.38;;
75044;SDS011;63614;56.026;35.960;2023-02-28T06:06:22;7.07;;;3.72;;
75044;SDS011;63614;56.026;35.960;2023-02-28T06:08:47;7.03;;;4.03;;
75044;SDS011;63614;56.026;35.960;2023-02-28T06:11:13;6.13;;;4.10;;
75044;SDS011;63614;56.026;35.960;2023-02-28T06:13:39;7.75;;;3.88;;
75044;SDS011;63614;56.026;35.960;2023-02-28T06:16:05;7.22;;;3.65;;
75044;SDS011;63614;56.026;35.960;2023-02-28T06:18:31;8.88;;;4.30;;
75044;SDS011;63614;56.026;35.960;2023-02-28T06:20:57;7.40;;;3.80;;
75044;SDS011;63614;56.026;35.960;2023-02-28T06:23:23;8.40;;;3.58;;
75044;SDS011;63614;56.026;35.960;2023-02-28T06:25:49;6.75;;;3.97;;
75044;SDS011;63614;56.026;35.960;2023-02-28T06:28:15;7.90;;;4.18;;
75044;SDS011;63614;56.026;35.960;2023-02-28T06:30:41;7.82;;;3.78;;
75044;SDS011;63614;56.026;35.960;2023-02-28T06:33:06;9.55;;;3.78;;
75044;SDS011;63614;56.026;35.960;2023-02-28T06:35:32;7.22;;;3.75;;
75044;SDS011;63614;56.026;35.960;2023-02-28T06:37:58;7.50;;;4.10;;
75044;SDS011;63614;56.026;35.960;2023-02-28T06:40:24;6.60;;;3.50;;
75044;SDS011;63614;56.026;35.960;2023-02-28T06:42:49;9.50;;;3.58;;
75044;SDS011;63614;56.026;35.960;2023-02-28T06:45:15;5.03;;;2.92;;
75044;SDS011;63614;56.026;35.960;2023-02-28T06:47:41;5.47;;;3.35;;
75044;SDS011;63614;56.026;35.960;2023-02-28T06:50:08;6.00;;;3.60;;
75044;SDS011;63614;56.026;35.960;2023-02-28T06:52:35;6.32;;;3.10;;
75044;SDS011;63614;56.026;35.960;2023-02-28T06:55:06;5.13;;;3.22;;
75044;SDS011;63614;56.026;35.960;2023-02-28T06:57:33;8.98;;;3.30;;
75044;SDS011;63614;56.026;35.960;2023-02-28T07:00:01;7.55;;;3.63;;
75044;SDS011;63614;56.026;35.960;2023-02-28T07:02:33;10.45;;;3.55;;
75044;SDS011;63614;56.026;35.960;2023-02-28T07:05:03;5.55;;;3.70;;
75044;SDS011;63614;56.026;35.960;2023-02-28T07:07:30;6.90;;;3.58;;
75044;SDS011;63614;56.026;35.960;2023-02-28T07:09:55;5.55;;;3.58;;
75044;SDS011;63614;56.026;35.960;2023-02-28T07:12:21;7.15;;;3.25;;
75044;SDS011;63614;56.026;35.960;2023-02-28T07:14:47;6.32;;;3.58;;
75044;SDS011;63614;56.026;35.960;2023-02-28T07:17:13;7.47;;;3.50;;
75044;SDS011;63614;56.026;35.960;2023-02-28T07:19:39;11.93;;;7.88;;
75044;SDS011;63614;56.026;35.960;2023-02-28T07:22:05;6.25;;;3.67;;
75044;SDS011;63614;56.026;35.960;2023-02-28T07:24:32;3.97;;;2.83;;
75044;SDS011;63614;56.026;35.960;2023-02-28T07:26:58;6.95;;;3.25;;
75044;SDS011;63614;56.026;35.960;2023-02-28T07:31:51;4.50;;;2.80;;
75044;SDS011;63614;56.026;35.960;2023-02-28T07:34:19;6.82;;;3.38;;
75044;SDS011;63614;56.026;35.960;2023-02-28T07:36:45;6.85;;;3.45;;
75044;SDS011;63614;56.026;35.960;2023-02-28T07:39:11;5.93;;;3.20;;
75044;SDS011;63614;56.026;35.960;2023-02-28T07:41:36;5.72;;;3.13;;
75044;SDS011;63614;56.026;35.960;2023-02-28T07:44:11;5.78;;;3.50;;
75044;SDS011;63614;56.026;35.960;2023-02-28T07:46:37;5.65;;;3.50;;
75044;SDS011;63614;56.026;35.960;2023-02-28T07:49:03;5.22;;;3.42;;
75044;SDS011;63614;56.026;35.960;2023-02-28T07:51:30;6.47;;;3.50;;
75044;SDS011;63614;56.026;35.960;2023-02-28T07:53:56;4.45;;;3.00;;
75044;SDS011;63614;56.026;35.960;2023-02-28T07:56:22;5.70;;;3.22;;
75044;SDS011;63614;56.026;35.960;2023-02-28T07:58:48;5.97;;;3.45;;
75044;SDS011;63614;56.026;35.960;2023-02-28T08:01:14;5.38;;;3.45;;
75044;SDS011;63614;56.026;35.960;2023-02-28T08:03:40;7.97;;;3.63;;
75044;SDS011;63614;56.026;35.960;2023-02-28T08:06:07;7.53;;;3.55;;
75044;SDS011;63614;56.026;35.960;2023-02-28T08:08:39;7.50;;;3.47;;
75044;SDS011;63614;56.026;35.960;2023-02-28T08:11:05;6.22;;;3.47;;
75044;SDS011;63614;56.026;35.960;2023-02-28T08:13:31;5.93;;;3.63;;
75044;SDS011;63614;56.026;35.960;2023-02-28T08:15:57;8.27;;;3.58;;
75044;SDS011;63614;56.026;35.960;2023-02-28T08:18:23;6.68;;;3.90;;
75044;SDS011;63614;56.026;35.960;2023-02-28T08:20:49;6.82;;;3.95;;
75044;SDS011;63614;56.026;35.960;2023-02-28T08:23:15;7.03;;;3.83;;
75044;SDS011;63614;56.026;35.960;2023-02-28T08:25:41;6.30;;;3.72;;
75044;SDS011;63614;56.026;35.960;2023-02-28T08:28:07;7.80;;;4.18;;
75044;SDS011;63614;56.026;35.960;2023-02-28T08:30:32;10.00;;;3.35;;
75044;SDS011;63614;56.026;35.960;2023-02-28T08:32:58;7.50;;;3.38;;
75044;SDS011;63614;56.026;35.960;2023-02-28T08:35:24;7.20;;;3.42;;
75044;SDS011;63614;56.026;35.960;2023-02-28T08:37:50;6.72;;;3.80;;
75044;SDS011;63614;56.026;35.960;2023-02-28T08:40:16;7.57;;;3.38;;
75044;SDS011;63614;56.026;35.960;2023-02-28T08:42:47;7.88;;;3.60;;
75044;SDS011;63614;56.026;35.960;2023-02-28T08:45:14;6.60;;;3.70;;
75044;SDS011;63614;56.026;35.960;2023-02-28T08:47:40;9.40;;;3.75;;
75044;SDS011;63614;56.026;35.960;2023-02-28T08:50:06;7.38;;;3.60;;
75044;SDS011;63614;56.026;35.960;2023-02-28T08:52:32;6.90;;;3.90;;
75044;SDS011;63614;56.026;35.960;2023-02-28T08:54:58;8.48;;;3.90;;
75044;SDS011;63614;56.026;35.960;2023-02-28T08:57:25;6.25;;;3.83;;
75044;SDS011;63614;56.026;35.960;2023-02-28T08:59:53;7.80;;;4.43;;
75044;SDS011;63614;56.026;35.960;2023-02-28T09:02:19;6.22;;;3.63;;
75044;SDS011;63614;56.026;35.960;2023-02-28T09:04:45;9.02;;;4.05;;
75044;SDS011;63614;56.026;35.960;2023-02-28T09:07:11;9.27;;;4.10;;
75044;SDS011;63614;56.026;35.960;2023-02-28T09:09:37;9.27;;;4.10;;
75044;SDS011;63614;56.026;35.960;2023-02-28T09:12:25;7.28;;;4.28;;
75044;SDS011;63614;56.026;35.960;2023-02-28T09:14:52;7.78;;;4.22;;
75044;SDS011;63614;56.026;35.960;2023-02-28T09:17:18;6.80;;;3.78;;
75044;SDS011;63614;56.026;35.960;2023-02-28T09:19:45;6.20;;;3.78;;
75044;SDS011;63614;56.026;35.960;2023-02-28T09:22:14;10.30;;;4.20;;
75044;SDS011;63614;56.026;35.960;2023-02-28T09:24:40;7.72;;;4.50;;
75044;SDS011;63614;56.026;35.960;2023-02-28T09:27:06;8.00;;;4.43;;
75044;SDS011;63614;56.026;35.960;2023-02-28T09:29:32;7.53;;;4.68;;
75044;SDS011;63614;56.026;35.960;2023-02-28T09:31:59;7.72;;;4.25;;
75044;SDS011;63614;56.026;35.960;2023-02-28T09:34:25;7.15;;;4.32;;
75044;SDS011;63614;56.026;35.960;2023-02-28T09:36:52;8.37;;;4.90;;
75044;SDS011;63614;56.026;35.960;2023-02-28T09:39:20;7.22;;;4.30;;
75044;SDS011;63614;56.026;35.960;2023-02-28T09:41:48;7.15;;;4.30;;
75044;SDS011;63614;56.026;35.960;2023-02-28T09:44:20;8.75;;;4.18;;
75044;SDS011;63614;56.026;35.960;2023-02-28T09:47:12;8.63;;;4.30;;
75044;SDS011;63614;56.026;35.960;2023-02-28T09:49:47;7.38;;;4.32;;
75044;SDS011;63614;56.026;35.960;2023-02-28T09:52:16;8.20;;;4.50;;
75044;SDS011;63614;56.026;35.960;2023-02-28T09:54:49;8.15;;;4.20;;
75044;SDS011;63614;56.026;35.960;2023-02-28T10:03:09;7.32;;;4.55;;
75044;SDS011;63614;56.026;35.960;2023-02-28T10:05:52;5.57;;;3.88;;
75044;SDS011;63614;56.026;35.960;2023-02-28T10:08:32;9.15;;;4.60;;
75044;SDS011;63614;56.026;35.960;2023-02-28T10:11:07;8.75;;;4.72;;
75044;SDS011;63614;56.026;35.960;2023-02-28T10:16:52;8.50;;;4.55;;
75044;SDS011;63614;56.026;35.960;2023-02-28T10:19:23;6.88;;;4.20;;
75044;SDS011;63614;56.026;35.960;2023-02-28T10:22:10;7.85;;;4.10;;
75044;SDS011;63614;56.026;35.960;2023-02-28T10:24:53;8.88;;;4.78;;
75044;SDS011;63614;56.026;35.960;2023-02-28T10:27:26;16.17;;;4.85;;
75044;SDS011;63614;56.026;35.960;2023-02-28T10:30:01;8.18;;;5.13;;
75044;SDS011;63614;56.026;35.960;2023-02-28T10:32:34;8.30;;;4.85;;
75044;SDS011;63614;56.026;35.960;2023-02-28T10:37:41;9.43;;;4.50;;
75044;SDS011;63614;56.026;35.960;2023-02-28T10:43:00;9.20;;;4.90;;
75044;SDS011;63614;56.026;35.960;2023-02-28T10:45:33;8.38;;;4.28;;
75044;SDS011;63614;56.026;35.960;2023-02-28T10:58:20;9.50;;;4.05;;
75044;SDS011;63614;56.026;35.960;2023-02-28T11:00:48;5.77;;;4.17;;
75044;SDS011;63614;56.026;35.960;2023-02-28T11:03:29;8.38;;;4.38;;
75044;SDS011;63614;56.026;35.960;2023-02-28T11:06:04;7.43;;;4.20;;
75044;SDS011;63614;56.026;35.960;2023-02-28T11:08:33;5.82;;;3.55;;
75044;SDS011;63614;56.026;35.960;2023-02-28T11:11:01;7.07;;;4.03;;
75044;SDS011;63614;56.026;35.960;2023-02-28T11:13:34;6.93;;;4.32;;
75044;SDS011;63614;56.026;35.960;2023-02-28T11:16:07;7.47;;;4.28;;
75044;SDS011;63614;56.026;35.960;2023-02-28T11:21:21;7.75;;;4.50;;
75044;SDS011;63614;56.026;35.960;2023-02-28T11:23:51;8.80;;;4.55;;
75044;SDS011;63614;56.026;35.960;2023-02-28T11:26:43;10.68;;;5.53;;
75044;SDS011;63614;56.026;35.960;2023-02-28T11:29:16;7.03;;;4.45;;
75044;SDS011;63614;56.026;35.960;2023-02-28T11:34:46;8.85;;;5.28;;
75044;SDS011;63614;56.026;35.960;2023-02-28T11:37:37;7.50;;;4.43;;
75044;SDS011;63614;56.026;35.960;2023-02-28T11:40:17;7.90;;;4.45;;
75044;SDS011;63614;56.026;35.960;2023-02-28T11:43:05;6.13;;;3.92;;
75044;SDS011;63614;56.026;35.960;2023-02-28T11:50:45;8.35;;;4.47;;
75044;SDS011;63614;56.026;35.960;2023-02-28T12:13:01;9.05;;;4.20;;
75044;SDS011;63614;56.026;35.960;2023-02-28T12:26:41;9.75;;;3.85;;
75044;SDS011;63614;56.026;35.960;2023-02-28T12:29:16;7.97;;;3.40;;
75044;SDS011;63614;56.026;35.960;2023-02-28T12:31:59;5.30;;;3.10;;
75044;SDS011;63614;56.026;35.960;2023-02-28T12:34:49;6.57;;;3.58;;
75044;SDS011;63614;56.026;35.960;2023-02-28T12:37:22;7.35;;;3.75;;
75044;SDS011;63614;56.026;35.960;2023-02-28T12:40:02;10.40;;;3.78;;
75044;SDS011;63614;56.026;35.960;2023-02-28T12:42:36;7.07;;;3.78;;
75044;SDS011;63614;56.026;35.960;2023-02-28T12:45:12;6.93;;;3.60;;
75044;SDS011;63614;56.026;35.960;2023-02-28T12:47:45;6.03;;;3.67;;
75044;SDS011;63614;56.026;35.960;2023-02-28T12:50:15;4.88;;;3.47;;
75044;SDS011;63614;56.026;35.960;2023-02-28T12:57:55;6.35;;;4.00;;
75044;SDS011;63614;56.026;35.960;2023-02-28T13:00:33;6.35;;;3.03;;
75044;SDS011;63614;56.026;35.960;2023-02-28T13:08:44;4.28;;;2.70;;
75044;SDS011;63614;56.026;35.960;2023-02-28T13:11:26;5.85;;;3.42;;
75044;SDS011;63614;56.026;35.960;2023-02-28T13:14:03;5.13;;;3.05;;
75044;SDS011;63614;56.026;35.960;2023-02-28T13:16:47;5.10;;;3.10;;
75044;SDS011;63614;56.026;35.960;2023-02-28T13:19:32;5.50;;;3.38;;
75044;SDS011;63614;56.026;35.960;2023-02-28T13:22:00;7.07;;;3.75;;
75044;SDS011;63614;56.026;35.960;2023-02-28T13:27:17;4.72;;;3.08;;
75044;SDS011;63614;56.026;35.960;2023-02-28T13:29:51;5.03;;;3.28;;
75044;SDS011;63614;56.026;35.960;2023-02-28T13:39:48;4.28;;;2.92;;
75044;SDS011;63614;56.026;35.960;2023-02-28T13:47:44;5.55;;;2.92;;
75044;SDS011;63614;56.026;35.960;2023-02-28T13:52:55;5.30;;;3.20;;
75044;SDS011;63614;56.026;35.960;2023-02-28T14:06:25;6.15;;;3.53;;
75044;SDS011;63614;56.026;35.960;2023-02-28T14:11:43;4.95;;;3.40;;
75044;SDS011;63614;56.026;35.960;2023-02-28T14:14:53;6.13;;;3.38;;
75044;SDS011;63614;56.026;35.960;2023-02-28T14:17:04;5.57;;;2.90;;
75044;SDS011;63614;56.026;35.960;2023-02-28T14:19:35;5.20;;;2.88;;
75044;SDS011;63614;56.026;35.960;2023-02-28T14:27:37;5.68;;;3.55;;
75044;SDS011;63614;56.026;35.960;2023-02-28T14:32:51;11.48;;;3.70;;
75044;SDS011;63614;56.026;35.960;2023-02-28T14:35:39;5.10;;;3.17;;
75044;SDS011;63614;56.026;35.960;2023-02-28T14:38:44;4.50;;;2.65;;
75044;SDS011;63614;56.026;35.960;2023-02-28T14:41:18;5.68;;;3.33;;
75044;SDS011;63614;56.026;35.960;2023-02-28T14:43:50;6.68;;;3.55;;
75044;SDS011;63614;56.026;35.960;2023-02-28T14:46:22;8.38;;;3.38;;
75044;SDS011;63614;56.026;35.960;2023-02-28T14:48:50;4.18;;;2.60;;
75044;SDS011;63614;56.026;35.960;2023-02-28T14:51:21;6.25;;;2.65;;
75044;SDS011;63614;56.026;35.960;2023-02-28T14:53:50;4.18;;;2.70;;
75044;SDS011;63614;56.026;35.960;2023-02-28T14:56:23;5.80;;;2.78;;
75044;SDS011;63614;56.026;35.960;2023-02-28T14:58:53;7.40;;;2.95;;
75044;SDS011;63614;56.026;35.960;2023-02-28T15:01:20;4.47;;;2.85;;
75044;SDS011;63614;56.026;35.960;2023-02-28T15:03:48;4.35;;;2.78;;
75044;SDS011;63614;56.026;35.960;2023-02-28T15:06:23;4.60;;;2.88;;
75044;SDS011;63614;56.026;35.960;2023-02-28T15:09:06;5.40;;;2.80;;
75044;SDS011;63614;56.026;35.960;2023-02-28T15:11:33;5.70;;;3.10;;
75044;SDS011;63614;56.026;35.960;2023-02-28T15:14:00;4.80;;;2.70;;
75044;SDS011;63614;56.026;35.960;2023-02-28T15:16:36;6.82;;;3.17;;
75044;SDS011;63614;56.026;35.960;2023-02-28T15:19:17;4.95;;;2.90;;
75044;SDS011;63614;56.026;35.960;2023-02-28T15:22:06;3.67;;;2.40;;
75044;SDS011;63614;56.026;35.960;2023-02-28T15:24:54;5.65;;;2.70;;
75044;SDS011;63614;56.026;35.960;2023-02-28T15:27:25;4.88;;;3.10;;
75044;SDS011;63614;56.026;35.960;2023-02-28T15:29:58;5.15;;;2.90;;
75044;SDS011;63614;56.026;35.960;2023-02-28T15:32:30;5.32;;;2.60;;
75044;SDS011;63614;56.026;35.960;2023-02-28T15:34:58;5.35;;;2.88;;
75044;SDS011;63614;56.026;35.960;2023-02-28T15:37:50;5.38;;;2.92;;
75044;SDS011;63614;56.026;35.960;2023-02-28T15:43:00;4.20;;;2.53;;
75044;SDS011;63614;56.026;35.960;2023-02-28T15:45:40;4.00;;;1.90;;
75044;SDS011;63614;56.026;35.960;2023-02-28T15:48:20;7.25;;;2.50;;
75044;SDS011;63614;56.026;35.960;2023-02-28T15:50:52;4.55;;;2.67;;
75044;SDS011;63614;56.026;35.960;2023-02-28T15:53:27;4.15;;;2.33;;
75044;SDS011;63614;56.026;35.960;2023-02-28T15:56:00;4.75;;;2.45;;
75044;SDS011;63614;56.026;35.960;2023-02-28T15:58:28;4.75;;;2.70;;
75044;SDS011;63614;56.026;35.960;2023-02-28T16:01:04;4.00;;;2.58;;
75044;SDS011;63614;56.026;35.960;2023-02-28T16:03:37;3.40;;;2.30;;
75044;SDS011;63614;56.026;35.960;2023-02-28T16:06:15;4.03;;;2.53;;
75044;SDS011;63614;56.026;35.960;2023-02-28T16:08:47;4.82;;;2.80;;
75044;SDS011;63614;56.026;35.960;2023-02-28T16:11:14;3.90;;;2.40;;
75044;SDS011;63614;56.026;35.960;2023-02-28T16:13:40;4.88;;;2.50;;
75044;SDS011;63614;56.026;35.960;2023-02-28T16:16:06;5.30;;;2.58;;
75044;SDS011;63614;56.026;35.960;2023-02-28T16:18:32;4.20;;;2.50;;
75044;SDS011;63614;56.026;35.960;2023-02-28T16:20:57;4.45;;;2.22;;
75044;SDS011;63614;56.026;35.960;2023-02-28T16:23:23;4.90;;;2.20;;
75044;SDS011;63614;56.026;35.960;2023-02-28T16:25:52;3.58;;;2.28;;
75044;SDS011;63614;56.026;35.960;2023-02-28T16:30:51;3.08;;;1.83;;
75044;SDS011;63614;56.026;35.960;2023-02-28T16:33:17;2.70;;;1.90;;
75044;SDS011;63614;56.026;35.960;2023-02-28T16:35:43;2.95;;;1.60;;
75044;SDS011;63614;56.026;35.960;2023-02-28T16:38:09;2.90;;;1.80;;
75044;SDS011;63614;56.026;35.960;2023-02-28T16:40:35;3.33;;;1.92;;
75044;SDS011;63614;56.026;35.960;2023-02-28T16:43:04;3.45;;;1.75;;
75044;SDS011;63614;56.026;35.960;2023-02-28T16:45:33;3.20;;;1.70;;
75044;SDS011;63614;56.026;35.960;2023-02-28T16:48:00;5.30;;;2.00;;
75044;SDS011;63614;56.026;35.960;2023-02-28T16:50:27;4.38;;;2.28;;
75044;SDS011;63614;56.026;35.960;2023-02-28T16:52:54;4.05;;;2.28;;
75044;SDS011;63614;56.026;35.960;2023-02-28T16:55:24;5.60;;;1.95;;
75044;SDS011;63614;56.026;35.960;2023-02-28T16:57:52;5.05;;;1.88;;
75044;SDS011;63614;56.026;35.960;2023-02-28T17:00:20;3.72;;;1.30;;
75044;SDS011;63614;56.026;35.960;2023-02-28T17:02:47;7.57;;;1.45;;
75044;SDS011;63614;56.026;35.960;2023-02-28T17:05:13;2.78;;;1.40;;
75044;SDS011;63614;56.026;35.960;2023-02-28T17:07:40;4.75;;;1.20;;
75044;SDS011;63614;56.026;35.960;2023-02-28T17:10:17;6.40;;;1.87;;
75044;SDS011;63614;56.026;35.960;2023-02-28T17:12:45;3.33;;;1.48;;
75044;SDS011;63614;56.026;35.960;2023-02-28T17:15:12;1.70;;;1.00;;
75044;SDS011;63614;56.026;35.960;2023-02-28T17:17:40;2.67;;;1.10;;
75044;SDS011;63614;56.026;35.960;2023-02-28T17:20:07;3.38;;;1.48;;
75044;SDS011;63614;56.026;35.960;2023-02-28T17:22:43;3.33;;;1.30;;
75044;SDS011;63614;56.026;35.960;2023-02-28T17:25:11;6.13;;;1.33;;
75044;SDS011;63614;56.026;35.960;2023-02-28T17:27:38;2.42;;;1.17;;
75044;SDS011;63614;56.026;35.960;2023-02-28T17:30:21;5.68;;;1.55;;
75044;SDS011;63614;56.026;35.960;2023-02-28T17:32:49;2.78;;;1.40;;
75044;SDS011;63614;56.026;35.960;2023-02-28T17:35:15;3.58;;;1.40;;
75044;SDS011;63614;56.026;35.960;2023-02-28T17:37:41;3.13;;;1.50;;
75044;SDS011;63614;56.026;35.960;2023-02-28T17:42:44;3.28;;;1.92;;